createdAt,value
2022-11-21T00:00:58.196Z,44.63
2022-11-21T00:03:27.229Z,44.33
2022-11-21T00:05:55.925Z,43.87
2022-11-21T00:08:29.814Z,44.73
2022-11-21T00:11:02.462Z,43.33
2022-11-21T00:13:32.620Z,44.70
2022-11-21T00:16:10.668Z,44.37
2022-11-21T00:18:41.065Z,47.20
2022-11-21T00:21:13.812Z,44.97
2022-11-21T00:23:43.093Z,46.40
2022-11-21T00:26:14.255Z,44.73
2022-11-21T00:28:44.202Z,47.97
2022-11-21T00:31:23.111Z,47.37
2022-11-21T00:33:58.015Z,46.50
2022-11-21T00:36:33.328Z,46.57
2022-11-21T00:39:02.303Z,46.67
2022-11-21T00:41:31.082Z,46.77
2022-11-21T00:44:00.024Z,47.57
2022-11-21T00:46:30.534Z,49.43
2022-11-21T00:48:59.319Z,49.23
2022-11-21T00:51:27.940Z,50.77
2022-11-21T00:53:57.766Z,55.50
2022-11-21T00:56:26.394Z,58.73
2022-11-21T00:58:55.057Z,71.63
2022-11-21T01:01:23.759Z,116.60
2022-11-21T01:03:53.991Z,141.97
2022-11-21T01:06:22.568Z,174.63
2022-11-21T01:08:54.435Z,188.57
2022-11-21T01:11:24.359Z,183.17
2022-11-21T01:13:56.284Z,135.70
2022-11-21T01:16:29.742Z,99.90
2022-11-21T01:18:59.935Z,80.03
2022-11-21T01:21:31.000Z,57.07
2022-11-21T01:24:01.832Z,52.13
2022-11-21T01:26:33.704Z,51.27
2022-11-21T01:29:02.358Z,47.17
2022-11-21T01:31:32.470Z,49.07
2022-11-21T01:34:03.670Z,47.67
2022-11-21T01:36:34.345Z,46.00
2022-11-21T01:39:06.101Z,48.47
2022-11-21T01:41:36.553Z,45.70
2022-11-21T01:44:12.245Z,47.43
2022-11-21T01:46:40.813Z,47.53
2022-11-21T01:49:13.998Z,50.90
2022-11-21T01:51:46.865Z,52.53
2022-11-21T01:54:20.240Z,65.43
2022-11-21T01:56:52.851Z,68.53
2022-11-21T01:59:26.802Z,69.13
2022-11-21T02:01:57.554Z,91.27
2022-11-21T02:04:32.263Z,86.83
2022-11-21T02:07:03.330Z,82.63
2022-11-21T02:09:35.066Z,68.93
2022-11-21T02:12:09.400Z,64.53
2022-11-21T02:14:40.050Z,60.37
2022-11-21T02:17:11.064Z,54.97
2022-11-21T02:19:48.745Z,52.17
2022-11-21T02:22:27.575Z,49.97
2022-11-21T02:25:16.347Z,48.57
2022-11-21T02:27:44.963Z,45.57
2022-11-21T02:30:14.815Z,50.53
2022-11-21T02:32:46.915Z,53.13
2022-11-21T02:35:17.411Z,55.33
2022-11-21T02:37:48.524Z,54.87
2022-11-21T02:40:22.292Z,53.80
2022-11-21T02:43:00.539Z,55.50
2022-11-21T02:45:33.661Z,51.77
2022-11-21T02:48:04.271Z,50.63
2022-11-21T02:50:34.664Z,50.27
2022-11-21T02:53:04.268Z,52.33
2022-11-21T02:55:34.449Z,56.27
2022-11-21T02:58:05.490Z,56.47
2022-11-21T03:00:35.257Z,54.83
2022-11-21T03:03:04.676Z,55.40
2022-11-21T03:05:33.538Z,54.50
2022-11-21T03:08:02.340Z,53.30
2022-11-21T03:10:31.163Z,55.77
2022-11-21T03:13:02.241Z,55.27
2022-11-21T03:15:32.845Z,53.67
2022-11-21T03:18:03.275Z,54.97
2022-11-21T03:20:32.670Z,52.70
2022-11-21T03:23:01.432Z,54.37
2022-11-21T03:25:30.426Z,56.63
2022-11-21T03:28:00.465Z,54.43
2022-11-21T03:30:29.287Z,53.00
2022-11-21T03:32:58.333Z,53.07
2022-11-21T03:35:29.801Z,53.13
2022-11-21T03:37:58.438Z,51.70
2022-11-21T03:40:27.174Z,53.33
2022-11-21T03:42:55.894Z,53.53
2022-11-21T03:45:26.173Z,53.00
2022-11-21T03:47:55.249Z,55.13
2022-11-21T03:50:23.901Z,54.60
2022-11-21T03:52:52.588Z,52.30
2022-11-21T03:55:21.319Z,52.77
2022-11-21T03:57:49.905Z,56.57
2022-11-21T04:00:19.315Z,53.47
2022-11-21T04:02:49.309Z,53.70
2022-11-21T04:05:19.122Z,53.53
2022-11-21T04:07:48.595Z,54.37
2022-11-21T04:10:19.693Z,54.97
2022-11-21T04:12:52.474Z,49.80
2022-11-21T04:15:21.720Z,51.67
2022-11-21T04:17:52.044Z,52.30
2022-11-21T04:20:22.672Z,53.87
2022-11-21T04:22:52.568Z,54.70
2022-11-21T04:25:21.337Z,55.47
2022-11-21T04:27:51.059Z,53.80
2022-11-21T04:30:20.721Z,52.83
2022-11-21T04:32:55.403Z,54.13
2022-11-21T04:35:26.298Z,52.53
2022-11-21T04:37:55.582Z,52.43
2022-11-21T04:40:25.759Z,53.40
2022-11-21T04:42:59.314Z,51.47
2022-11-21T04:45:33.425Z,55.83
2022-11-21T04:48:10.077Z,52.70
2022-11-21T04:50:39.121Z,72.00
2022-11-21T04:53:07.785Z,177.03
2022-11-21T04:55:39.801Z,56.20
2022-11-21T04:58:16.088Z,50.63
2022-11-21T05:00:52.832Z,51.60
2022-11-21T05:03:23.231Z,52.60
2022-11-21T05:05:51.984Z,52.57
2022-11-21T05:08:22.402Z,50.63
2022-11-21T05:11:08.267Z,50.90
2022-11-21T05:13:37.684Z,51.70
2022-11-21T05:16:08.504Z,51.00
2022-11-21T05:18:42.486Z,53.80
2022-11-21T05:21:18.008Z,52.33
2022-11-21T05:23:53.111Z,133.05
2022-11-21T05:26:23.752Z,55.40
2022-11-21T05:28:55.338Z,52.97
2022-11-21T05:31:26.622Z,51.60
2022-11-21T05:33:57.695Z,53.57
2022-11-21T05:36:26.424Z,144.10
2022-11-21T05:38:55.339Z,53.77
2022-11-21T05:41:24.103Z,56.13
2022-11-21T05:43:57.651Z,51.80
2022-11-21T05:46:27.832Z,53.63
2022-11-21T05:48:58.363Z,67.60
2022-11-21T05:51:27.046Z,69.40
2022-11-21T05:53:55.875Z,67.18
2022-11-21T05:56:24.689Z,66.33
2022-11-21T05:58:53.684Z,116.60
2022-11-21T06:01:36.678Z,60.90
2022-11-21T06:04:07.323Z,60.70
2022-11-21T06:06:36.559Z,65.67
2022-11-21T06:09:06.226Z,64.57
2022-11-21T06:11:35.536Z,130.97
2022-11-21T06:14:04.238Z,62.40
2022-11-21T06:16:33.525Z,58.87
2022-11-21T06:19:02.209Z,59.53
2022-11-21T06:21:37.519Z,60.17
2022-11-21T06:24:24.629Z,59.43
2022-11-21T06:27:09.292Z,61.83
2022-11-21T06:29:39.529Z,61.70
2022-11-21T06:32:08.184Z,71.60
2022-11-21T06:34:37.316Z,74.57
2022-11-21T06:37:07.793Z,77.93
2022-11-21T06:39:36.458Z,79.77
2022-11-21T06:42:05.227Z,80.50
2022-11-21T06:44:33.848Z,80.20
2022-11-21T06:47:02.539Z,81.93
2022-11-21T06:49:31.250Z,86.07
2022-11-21T06:51:59.848Z,87.77
2022-11-21T06:54:30.430Z,84.93
2022-11-21T06:56:59.580Z,91.30
2022-11-21T06:59:28.207Z,84.47
2022-11-21T07:01:56.918Z,83.10
2022-11-21T07:04:26.030Z,80.00
2022-11-21T07:06:54.799Z,79.77
2022-11-21T07:09:33.224Z,82.57
2022-11-21T07:12:17.924Z,69.97
2022-11-21T07:14:46.567Z,69.43
2022-11-21T07:17:15.455Z,71.37
2022-11-21T07:19:44.094Z,69.47
2022-11-21T07:22:12.784Z,71.33
2022-11-21T07:24:41.519Z,65.57
2022-11-21T07:27:11.607Z,65.47
2022-11-21T07:29:40.299Z,64.03
2022-11-21T07:32:08.957Z,64.57
2022-11-21T07:34:37.616Z,64.27
2022-11-21T07:37:06.232Z,69.10
2022-11-21T07:39:35.062Z,70.67
2022-11-21T07:42:03.767Z,72.70
2022-11-21T07:44:33.869Z,68.82
2022-11-21T07:47:02.896Z,73.95
2022-11-21T07:49:31.683Z,153.07
2022-11-21T07:52:00.724Z,186.23
2022-11-21T07:54:29.561Z,87.60
2022-11-21T07:56:58.289Z,66.33
2022-11-21T07:59:27.271Z,63.27
2022-11-21T08:01:57.694Z,58.90
2022-11-21T08:04:26.530Z,64.13
2022-11-21T08:06:55.238Z,63.93
2022-11-21T08:09:23.972Z,63.53
2022-11-21T08:11:52.871Z,59.97
2022-11-21T08:14:21.860Z,57.30
2022-11-21T08:16:53.470Z,72.30
2022-11-21T08:19:23.982Z,59.03
2022-11-21T08:21:52.757Z,53.83
2022-11-21T08:24:21.344Z,51.77
2022-11-21T08:26:50.165Z,54.10
2022-11-21T08:29:18.832Z,50.93
2022-11-21T08:31:48.097Z,50.50
2022-11-21T08:34:16.974Z,55.33
2022-11-21T08:36:47.059Z,55.80
2022-11-21T08:39:15.709Z,57.50
2022-11-21T08:42:01.657Z,59.63
2022-11-21T08:44:30.697Z,58.37
2022-11-21T08:47:00.101Z,60.70
2022-11-21T08:49:29.159Z,76.90
2022-11-21T08:51:59.237Z,78.47
2022-11-21T08:54:29.541Z,70.33
2022-11-21T08:56:58.535Z,81.73
2022-11-21T08:59:48.990Z,81.77
2022-11-21T09:02:17.753Z,57.03
2022-11-21T09:04:46.659Z,63.70
2022-11-21T09:07:16.957Z,66.80
2022-11-21T09:09:45.797Z,71.80
2022-11-21T09:12:14.737Z,73.20
2022-11-21T09:15:05.962Z,57.37
2022-11-21T09:17:52.235Z,60.37
2022-11-21T09:21:30.556Z,48.28
2022-11-21T09:24:14.576Z,153.53
2022-11-21T09:26:56.233Z,125.60
2022-11-21T09:29:36.823Z,113.70
2022-11-21T09:32:11.976Z,80.20
2022-11-21T09:34:40.969Z,91.17
2022-11-21T09:37:17.835Z,67.03
2022-11-21T09:39:53.764Z,65.33
2022-11-21T09:42:57.792Z,64.57
2022-11-21T09:48:54.133Z,86.03
2022-11-21T09:51:42.712Z,64.30
2022-11-21T09:57:38.478Z,152.70
2022-11-21T10:01:06.108Z,64.17
2022-11-21T10:06:34.397Z,67.17
2022-11-21T10:09:32.850Z,53.22
2022-11-21T10:12:32.830Z,77.00
2022-11-21T10:15:21.152Z,58.40
2022-11-21T10:18:02.502Z,69.07
2022-11-21T10:20:48.774Z,52.13
2022-11-21T10:23:39.589Z,51.03
2022-11-21T10:26:18.077Z,63.93
2022-11-21T10:28:54.116Z,68.53
2022-11-21T10:31:33.677Z,91.03
2022-11-21T10:34:09.190Z,96.27
2022-11-21T10:36:43.642Z,106.50
2022-11-21T10:39:30.871Z,104.00
2022-11-21T10:42:20.290Z,117.50
2022-11-21T10:45:19.800Z,126.03
2022-11-21T10:47:57.159Z,114.77
2022-11-21T10:50:41.096Z,131.47
2022-11-21T10:53:40.342Z,130.47
2022-11-21T10:56:13.539Z,138.23
2022-11-21T10:58:46.546Z,141.53
2022-11-21T11:01:27.054Z,164.17
2022-11-21T11:04:43.901Z,165.13
2022-11-21T11:07:23.388Z,152.80
2022-11-21T11:09:53.916Z,169.77
2022-11-21T11:12:45.261Z,158.10
2022-11-21T11:15:25.159Z,141.73
2022-11-21T11:17:56.787Z,170.30
2022-11-21T11:20:38.169Z,193.73
2022-11-21T11:23:32.375Z,223.77
2022-11-21T11:26:02.054Z,210.50
2022-11-21T11:28:37.402Z,179.50
2022-11-21T11:31:28.611Z,168.97
2022-11-21T11:33:58.310Z,196.23
2022-11-21T11:36:40.646Z,173.43
2022-11-21T11:39:23.961Z,173.33
2022-11-21T11:43:01.189Z,148.20
2022-11-21T11:46:05.767Z,178.90
2022-11-21T11:48:56.556Z,163.60
2022-11-21T11:51:33.820Z,184.63
2022-11-21T11:54:09.322Z,154.60
2022-11-21T11:56:40.095Z,137.10
2022-11-21T11:59:17.719Z,104.17
2022-11-21T12:01:53.237Z,121.07
2022-11-21T12:04:24.132Z,112.83
2022-11-21T12:09:53.780Z,113.50
2022-11-21T12:12:37.158Z,105.53
2022-11-21T12:15:31.653Z,106.30
2022-11-21T12:18:15.405Z,109.50
2022-11-21T12:20:53.864Z,115.70
2022-11-21T12:23:25.270Z,96.53
2022-11-21T12:26:01.880Z,95.03
2022-11-21T12:28:41.481Z,105.37
2022-11-21T12:31:16.713Z,99.53
2022-11-21T12:33:57.682Z,101.73
2022-11-21T12:36:36.219Z,99.27
2022-11-21T12:39:33.716Z,113.63
2022-11-21T12:42:30.679Z,99.27
2022-11-21T12:45:12.921Z,87.47
2022-11-21T12:48:22.901Z,91.43
2022-11-21T12:51:21.649Z,102.30
2022-11-21T12:54:15.819Z,97.93
2022-11-21T12:56:50.920Z,110.70
2022-11-21T12:59:21.657Z,103.27
2022-11-21T13:01:58.363Z,114.77
2022-11-21T13:04:31.963Z,106.57
2022-11-21T13:07:01.546Z,116.97
2022-11-21T13:09:35.069Z,117.83
2022-11-21T13:12:11.584Z,116.87
2022-11-21T13:14:48.215Z,135.30
2022-11-21T13:17:42.998Z,126.37
2022-11-21T13:20:26.095Z,125.40
2022-11-21T13:22:59.263Z,126.07
2022-11-21T13:25:49.433Z,128.03
2022-11-21T13:28:38.407Z,150.57
2022-11-21T13:31:30.234Z,185.53
2022-11-21T13:33:59.370Z,188.57
2022-11-21T13:36:40.439Z,177.73
2022-11-21T13:39:36.950Z,186.10
2022-11-21T13:42:30.412Z,149.40
2022-11-21T13:45:01.168Z,144.73
2022-11-21T13:48:13.492Z,144.87
2022-11-21T13:51:00.733Z,139.07
2022-11-21T13:54:09.835Z,138.23
2022-11-21T13:56:47.197Z,147.50
2022-11-21T13:59:36.768Z,129.80
2022-11-21T14:02:28.127Z,136.03
2022-11-21T14:05:16.998Z,133.63
2022-11-21T14:07:47.871Z,141.10
2022-11-21T14:10:34.382Z,134.93
2022-11-21T14:13:04.683Z,131.77
2022-11-21T14:15:42.825Z,137.30
2022-11-21T14:18:22.627Z,116.17
2022-11-21T14:20:57.269Z,122.10
2022-11-21T14:23:28.044Z,117.53
2022-11-21T14:25:58.567Z,132.23
2022-11-21T14:28:29.443Z,118.60
2022-11-21T14:31:00.826Z,119.23
2022-11-21T14:33:33.809Z,118.97
2022-11-21T14:36:05.785Z,122.27
2022-11-21T14:38:38.176Z,123.53
2022-11-21T14:41:32.311Z,120.43
2022-11-21T14:44:07.272Z,131.33
2022-11-21T14:46:37.102Z,123.13
2022-11-21T14:49:29.532Z,119.80
2022-11-21T14:52:19.693Z,130.10
2022-11-21T14:57:44.087Z,143.23
2022-11-21T15:03:20.139Z,142.73
2022-11-21T15:06:08.591Z,129.73
2022-11-21T15:11:34.271Z,121.40
2022-11-21T15:14:16.719Z,129.30
2022-11-21T15:16:47.548Z,125.27
2022-11-21T15:19:22.329Z,130.63
2022-11-21T15:21:54.001Z,122.37
2022-11-21T15:24:32.676Z,125.90
2022-11-21T15:27:01.925Z,129.70
2022-11-21T15:29:32.564Z,132.20
2022-11-21T15:32:10.492Z,123.80
2022-11-21T15:34:42.897Z,143.93
2022-11-21T15:37:18.830Z,130.40
2022-11-21T15:39:50.229Z,137.20
2022-11-21T15:42:38.373Z,138.80
2022-11-21T15:45:25.542Z,128.70
2022-11-21T15:47:55.788Z,163.10
2022-11-21T15:50:25.550Z,161.67
2022-11-21T15:52:55.746Z,159.87
2022-11-21T15:55:29.378Z,148.83
2022-11-21T15:57:58.475Z,168.53
2022-11-21T16:00:27.364Z,146.17
2022-11-21T16:02:56.485Z,152.07
2022-11-21T16:05:25.245Z,137.57
2022-11-21T16:07:55.550Z,129.77
2022-11-21T16:10:27.801Z,145.90
2022-11-21T16:12:57.014Z,142.33
2022-11-21T16:15:25.801Z,123.57
2022-11-21T16:17:54.744Z,117.03
2022-11-21T16:20:23.501Z,140.80
2022-11-21T16:22:52.113Z,110.90
2022-11-21T16:25:22.159Z,125.33
2022-11-21T16:27:50.775Z,118.53
2022-11-21T16:30:19.533Z,123.20
2022-11-21T16:32:48.245Z,127.83
2022-11-21T16:35:17.110Z,127.10
2022-11-21T16:37:47.111Z,137.93
2022-11-21T16:40:16.071Z,143.33
2022-11-21T16:42:47.008Z,128.33
2022-11-21T16:45:15.717Z,129.93
2022-11-21T16:47:48.719Z,127.13
2022-11-21T16:50:18.499Z,127.20
2022-11-21T16:52:47.179Z,142.23
2022-11-21T16:55:15.943Z,121.60
2022-11-21T16:57:46.241Z,127.83
2022-11-21T17:00:15.704Z,132.20
2022-11-21T17:02:44.261Z,143.60
2022-11-21T17:05:13.076Z,145.20
2022-11-21T17:07:41.845Z,139.97
2022-11-21T17:10:11.188Z,140.83
2022-11-21T17:12:40.399Z,130.33
2022-11-21T17:15:13.425Z,121.80
2022-11-21T17:17:42.454Z,113.77
2022-11-21T17:20:12.496Z,126.73
2022-11-21T17:22:41.119Z,97.57
2022-11-21T17:25:10.537Z,83.30
2022-11-21T17:27:39.230Z,65.67
2022-11-21T17:30:11.360Z,54.37
2022-11-21T17:32:40.235Z,80.43
2022-11-21T17:35:09.905Z,80.93
2022-11-21T17:37:38.805Z,87.73
2022-11-21T17:40:12.314Z,88.50
2022-11-21T17:42:43.455Z,84.87
2022-11-21T17:45:14.127Z,78.77
2022-11-21T17:47:44.388Z,78.83
2022-11-21T17:50:13.240Z,75.43
2022-11-21T17:52:41.941Z,74.83
2022-11-21T17:55:10.830Z,86.27
2022-11-21T17:57:39.797Z,91.23
2022-11-21T18:00:09.728Z,91.73
2022-11-21T18:02:39.952Z,90.27
2022-11-21T18:05:09.027Z,89.30
2022-11-21T18:07:37.972Z,84.63
2022-11-21T18:10:35.285Z,78.57
2022-11-21T18:12:56.132Z,70.03
2022-11-21T18:15:24.732Z,71.83
2022-11-21T18:17:54.702Z,68.77
2022-11-21T18:20:24.370Z,66.20
2022-11-21T18:22:53.036Z,65.17
2022-11-21T18:25:22.091Z,69.20
2022-11-21T18:27:54.917Z,65.90
2022-11-21T18:30:24.245Z,65.20
2022-11-21T18:32:54.787Z,60.30
2022-11-21T18:35:23.379Z,56.20
2022-11-21T18:37:52.317Z,58.40
2022-11-21T18:40:25.984Z,61.70
2022-11-21T18:42:54.618Z,54.07
2022-11-21T18:45:23.192Z,65.27
2022-11-21T18:47:51.820Z,73.47
2022-11-21T18:50:21.958Z,68.90
2022-11-21T18:52:50.550Z,65.63
2022-11-21T18:55:19.160Z,57.40
2022-11-21T18:57:47.808Z,54.30
2022-11-21T19:00:17.158Z,59.33
2022-11-21T19:02:46.034Z,56.73
2022-11-21T19:05:20.227Z,64.13
2022-11-21T19:07:53.630Z,61.83
2022-11-21T19:10:42.478Z,69.93
2022-11-21T19:13:11.146Z,69.70
2022-11-21T19:15:39.853Z,71.17
2022-11-21T19:18:08.532Z,62.00
2022-11-21T19:20:43.048Z,63.00
2022-11-21T19:23:13.097Z,63.30
2022-11-21T19:25:41.776Z,62.20
2022-11-21T19:28:10.673Z,69.53
2022-11-21T19:30:39.283Z,63.13
2022-11-21T19:33:08.292Z,63.07
2022-11-21T19:35:41.842Z,68.90
2022-11-21T19:38:10.492Z,64.90
2022-11-21T19:40:54.353Z,67.50
2022-11-21T19:43:24.068Z,62.63
2022-11-21T19:45:57.890Z,63.80
2022-11-21T19:48:27.073Z,60.67
2022-11-21T19:50:58.907Z,59.37
2022-11-21T19:53:28.369Z,65.17
2022-11-21T19:55:58.451Z,68.03
2022-11-21T19:58:27.718Z,65.83
2022-11-21T20:00:56.866Z,67.33
2022-11-21T20:03:25.660Z,70.10
2022-11-21T20:05:54.514Z,67.20
2022-11-21T20:08:23.262Z,67.27
2022-11-21T20:10:51.902Z,66.23
2022-11-21T20:13:22.121Z,67.00
2022-11-21T20:15:50.763Z,63.37
2022-11-21T20:18:19.682Z,63.60
2022-11-21T20:20:48.570Z,61.90
2022-11-21T20:23:17.275Z,63.67
2022-11-21T20:25:51.009Z,66.57
2022-11-21T20:28:19.958Z,64.37
2022-11-21T20:30:49.992Z,67.00
2022-11-21T20:33:18.808Z,65.33
2022-11-21T20:35:47.566Z,71.77
2022-11-21T20:38:20.112Z,69.30
2022-11-21T20:40:54.226Z,68.83
2022-11-21T20:43:22.811Z,71.47
2022-11-21T20:46:11.754Z,72.93
2022-11-21T20:48:41.867Z,68.57
2022-11-21T20:54:03.337Z,56.20
2022-11-21T20:56:34.825Z,64.47
2022-11-21T20:59:03.929Z,60.80
2022-11-21T21:01:34.661Z,62.30
2022-11-21T21:04:03.438Z,64.60
2022-11-21T21:06:32.506Z,65.37
2022-11-21T21:09:01.170Z,60.87
2022-11-21T21:11:50.950Z,68.10
2022-11-21T21:14:19.175Z,72.93
2022-11-21T21:16:51.779Z,59.97
2022-11-21T21:19:21.623Z,56.57
2022-11-21T21:21:50.251Z,56.60
2022-11-21T21:24:19.313Z,54.93
2022-11-21T21:26:51.872Z,57.43
2022-11-21T21:29:22.173Z,63.13
2022-11-21T21:31:52.987Z,59.43
2022-11-21T21:34:23.051Z,55.40
2022-11-21T21:36:52.142Z,59.70
2022-11-21T21:39:20.919Z,61.50
2022-11-21T21:41:49.767Z,62.33
2022-11-21T21:44:18.396Z,59.63
2022-11-21T21:46:47.317Z,57.53
2022-11-21T21:49:17.331Z,56.27
2022-11-21T21:51:47.059Z,55.70
2022-11-21T21:54:23.409Z,56.70
2022-11-21T21:56:52.479Z,58.73
2022-11-21T21:59:21.243Z,52.73
2022-11-21T22:01:51.813Z,57.90
2022-11-21T22:04:22.158Z,56.93
2022-11-21T22:06:50.745Z,56.67
2022-11-21T22:09:19.387Z,57.07
2022-11-21T22:11:48.031Z,54.73
2022-11-21T22:14:18.019Z,57.87
2022-11-21T22:16:46.989Z,54.60
2022-11-21T22:19:15.724Z,53.40
2022-11-21T22:22:02.053Z,52.07
2022-11-21T22:24:30.611Z,52.43
2022-11-21T22:26:59.379Z,50.00
2022-11-21T22:29:28.037Z,54.90
2022-11-21T22:31:56.813Z,54.40
2022-11-21T22:34:26.801Z,54.43
2022-11-21T22:36:55.380Z,50.20
2022-11-21T22:39:26.944Z,56.37
2022-11-21T22:41:59.741Z,55.97
2022-11-21T22:44:28.920Z,58.27
2022-11-21T22:47:01.492Z,57.47
2022-11-21T22:49:33.021Z,56.50
2022-11-21T22:52:04.906Z,60.90
2022-11-21T22:54:37.979Z,57.97
2022-11-21T22:57:08.415Z,55.30
2022-11-21T22:59:40.248Z,58.40
2022-11-21T23:02:10.155Z,56.03
2022-11-21T23:04:41.296Z,55.43
2022-11-21T23:07:13.270Z,57.20
2022-11-21T23:09:46.802Z,55.57
2022-11-21T23:12:15.769Z,59.20
2022-11-21T23:14:47.246Z,52.37
2022-11-21T23:17:16.692Z,56.20
2022-11-21T23:19:45.382Z,54.87
2022-11-21T23:22:15.814Z,53.40
2022-11-21T23:24:46.598Z,54.60
2022-11-21T23:27:17.947Z,53.73
2022-11-21T23:29:51.054Z,58.37
2022-11-21T23:32:21.361Z,54.23
2022-11-21T23:34:52.625Z,54.63
2022-11-21T23:37:22.666Z,54.10
2022-11-21T23:39:54.317Z,56.97
2022-11-21T23:42:26.043Z,56.37
2022-11-21T23:44:56.784Z,54.57
2022-11-21T23:47:28.947Z,50.77
2022-11-21T23:49:57.585Z,54.60
2022-11-21T23:52:27.623Z,50.43
2022-11-21T23:55:05.744Z,52.60
2022-11-21T23:57:41.365Z,53.70
